createdAt,value
2017-05-29T00:00:35.319Z,66.33
2017-05-29T00:01:35.919Z,68.74
2017-05-29T00:02:36.500Z,68.96
2017-05-29T00:03:37.083Z,69.45
2017-05-29T00:04:37.666Z,66.52
2017-05-29T00:05:38.246Z,67.52
2017-05-29T00:06:38.827Z,66.91
2017-05-29T00:07:39.410Z,69.45
2017-05-29T00:08:39.993Z,66.91
2017-05-29T00:09:40.574Z,67.07
2017-05-29T00:10:41.155Z,68.16
2017-05-29T00:11:41.740Z,68.74
2017-05-29T00:12:42.344Z,68.26
2017-05-29T00:13:42.922Z,69.15
2017-05-29T00:14:43.503Z,66.94
2017-05-29T00:15:44.086Z,67.52
2017-05-29T00:16:44.669Z,68.74
2017-05-29T00:17:45.250Z,68.06
2017-05-29T00:18:45.848Z,67.39
2017-05-29T00:19:46.430Z,69.15
2017-05-29T00:20:47.012Z,68.87
2017-05-29T00:21:47.596Z,67.33
2017-05-29T00:22:48.178Z,68.74
2017-05-29T00:23:48.761Z,68.96
2017-05-29T00:24:49.344Z,68.74
2017-05-29T00:25:49.926Z,68.74
2017-05-29T00:26:50.526Z,69.12
2017-05-29T00:27:51.109Z,68.22
2017-05-29T00:28:51.728Z,68.51
2017-05-29T00:29:52.291Z,68.51
2017-05-29T00:30:52.873Z,68.60
2017-05-29T00:31:53.455Z,68.13
2017-05-29T00:32:54.039Z,70.47
2017-05-29T00:33:54.620Z,69.41
2017-05-29T00:34:55.201Z,71.62
2017-05-29T00:35:55.782Z,71.56
2017-05-29T00:36:56.387Z,68.44
2017-05-29T00:37:56.965Z,70.09
2017-05-29T00:38:57.546Z,71.24
2017-05-29T00:39:58.129Z,69.89
2017-05-29T00:40:58.711Z,70.92
2017-05-29T00:41:59.295Z,69.18
2017-05-29T00:42:59.876Z,71.62
2017-05-29T00:44:00.457Z,70.15
2017-05-29T00:45:01.041Z,69.85
2017-05-29T00:46:01.623Z,71.49
2017-05-29T00:47:02.204Z,71.40
2017-05-29T00:48:02.788Z,71.40
2017-05-29T00:49:03.367Z,72.45
2017-05-29T00:50:03.952Z,71.69
2017-05-29T00:51:04.533Z,70.50
2017-05-29T00:52:05.115Z,71.36
2017-05-29T00:53:05.697Z,71.55
2017-05-29T00:54:06.279Z,73.19
2017-05-29T00:55:06.861Z,72.13
2017-05-29T00:56:07.444Z,73.09
2017-05-29T00:57:08.026Z,72.00
2017-05-29T00:58:08.609Z,73.67
2017-05-29T00:59:09.189Z,71.91
2017-05-29T01:00:09.771Z,72.19
2017-05-29T01:01:10.353Z,72.00
2017-05-29T01:02:10.934Z,72.67
2017-05-29T01:03:11.516Z,73.54
2017-05-29T01:04:12.098Z,72.67
2017-05-29T01:05:12.679Z,73.83
2017-05-29T01:06:13.263Z,74.54
2017-05-29T01:07:13.843Z,71.36
2017-05-29T01:08:14.424Z,73.47
2017-05-29T01:09:15.008Z,72.13
2017-05-29T01:10:15.606Z,73.67
2017-05-29T01:11:16.187Z,72.90
2017-05-29T01:12:16.768Z,72.03
2017-05-29T01:13:17.351Z,73.77
2017-05-29T01:14:17.932Z,71.94
2017-05-29T01:15:18.513Z,72.48
2017-05-29T01:16:19.117Z,73.60
2017-05-29T01:17:19.676Z,73.83
2017-05-29T01:18:20.258Z,75.65
2017-05-29T01:19:20.839Z,75.02
2017-05-29T01:20:21.420Z,73.51
2017-05-29T01:21:22.002Z,74.29
2017-05-29T01:22:22.583Z,71.84
2017-05-29T01:23:23.166Z,72.61
2017-05-29T01:24:23.748Z,73.92
2017-05-29T01:25:24.330Z,74.11
2017-05-29T01:26:24.913Z,73.63
2017-05-29T01:27:25.494Z,74.21
2017-05-29T01:28:26.074Z,74.82
2017-05-29T01:29:26.656Z,74.50
2017-05-29T01:30:27.237Z,74.05
2017-05-29T01:31:27.821Z,74.19
2017-05-29T01:32:28.401Z,72.42
2017-05-29T01:33:28.983Z,73.06
2017-05-29T01:34:29.580Z,74.92
2017-05-29T01:35:30.163Z,73.57
2017-05-29T01:36:30.744Z,74.92
2017-05-29T01:37:31.326Z,73.38
2017-05-29T01:38:31.908Z,73.38
2017-05-29T01:39:32.506Z,74.25
2017-05-29T01:40:33.087Z,73.77
2017-05-29T01:41:33.686Z,74.82
2017-05-29T01:42:34.268Z,75.05
2017-05-29T01:43:34.852Z,73.57
2017-05-29T01:44:35.432Z,73.38
2017-05-29T01:45:36.015Z,73.83
2017-05-29T01:46:36.597Z,74.88
2017-05-29T01:47:37.179Z,75.37
2017-05-29T01:48:37.762Z,75.04
2017-05-29T01:49:38.343Z,76.09
2017-05-29T01:50:38.942Z,76.67
2017-05-29T01:51:39.524Z,76.96
2017-05-29T01:52:40.107Z,76.90
2017-05-29T01:53:40.689Z,75.37
2017-05-29T01:54:41.271Z,75.88
2017-05-29T01:55:41.867Z,74.60
2017-05-29T01:56:42.449Z,75.31
2017-05-29T01:57:43.030Z,76.46
2017-05-29T01:58:43.612Z,74.82
2017-05-29T01:59:44.210Z,75.49
2017-05-29T02:00:44.791Z,74.82
2017-05-29T02:01:45.373Z,75.69
2017-05-29T02:02:45.955Z,75.07
2017-05-29T02:03:46.537Z,75.56
2017-05-29T02:04:47.118Z,76.75
2017-05-29T02:05:47.701Z,76.36
2017-05-29T02:06:48.283Z,76.36
2017-05-29T02:07:48.863Z,74.54
2017-05-29T02:08:49.443Z,75.79
2017-05-29T02:09:50.027Z,75.02
2017-05-29T02:10:50.616Z,75.94
2017-05-29T02:11:51.191Z,77.09
2017-05-29T02:12:51.773Z,77.58
2017-05-29T02:13:52.355Z,76.32
2017-05-29T02:14:52.936Z,77.33
2017-05-29T02:15:53.533Z,76.46
2017-05-29T02:16:54.114Z,76.42
2017-05-29T02:17:54.696Z,76.48
2017-05-29T02:18:55.278Z,77.06
2017-05-29T02:19:55.860Z,77.25
2017-05-29T02:20:56.444Z,78.63
2017-05-29T02:21:57.025Z,78.15
2017-05-29T02:22:57.606Z,76.96
2017-05-29T02:23:58.188Z,77.63
2017-05-29T02:24:58.768Z,78.98
2017-05-29T02:25:59.350Z,77.83
2017-05-29T02:26:59.931Z,79.36
2017-05-29T02:28:00.512Z,78.11
2017-05-29T02:29:01.093Z,79.36
2017-05-29T02:30:01.685Z,77.76
2017-05-29T02:31:02.265Z,78.59
2017-05-29T02:32:02.845Z,78.21
2017-05-29T02:33:03.427Z,78.59
2017-05-29T02:34:04.012Z,78.94
2017-05-29T02:35:04.593Z,79.65
2017-05-29T02:36:05.176Z,79.46
2017-05-29T02:37:05.761Z,79.80
2017-05-29T02:38:06.340Z,81.05
2017-05-29T02:39:06.920Z,79.88
2017-05-29T02:40:07.504Z,78.40
2017-05-29T02:41:08.087Z,78.63
2017-05-29T02:42:08.667Z,79.65
2017-05-29T02:43:09.247Z,79.55
2017-05-29T02:44:09.829Z,80.04
2017-05-29T02:45:10.411Z,79.75
2017-05-29T02:46:10.992Z,79.17
2017-05-29T02:47:11.592Z,80.17
2017-05-29T02:48:12.175Z,79.60
2017-05-29T02:49:12.758Z,78.44
2017-05-29T02:50:13.340Z,78.63
2017-05-29T02:51:13.921Z,79.11
2017-05-29T02:52:14.504Z,79.69
2017-05-29T02:53:15.085Z,79.75
2017-05-29T02:54:15.666Z,80.57
2017-05-29T02:55:16.249Z,81.05
2017-05-29T02:56:16.830Z,81.72
2017-05-29T02:57:17.413Z,82.10
2017-05-29T02:58:17.994Z,80.80
2017-05-29T02:59:18.575Z,80.51
2017-05-29T03:00:19.160Z,80.86
2017-05-29T03:01:19.740Z,82.30
2017-05-29T03:02:20.327Z,82.24
2017-05-29T03:03:20.906Z,81.72
2017-05-29T03:04:21.489Z,82.24
2017-05-29T03:05:22.070Z,82.05
2017-05-29T03:06:22.653Z,81.24
2017-05-29T03:07:23.235Z,81.63
2017-05-29T03:08:23.815Z,82.78
2017-05-29T03:09:24.399Z,82.40
2017-05-29T03:10:24.980Z,82.78
2017-05-29T03:11:25.562Z,82.05
2017-05-29T03:12:26.145Z,82.05
2017-05-29T03:13:26.727Z,82.05
2017-05-29T03:14:27.310Z,81.48
2017-05-29T03:15:27.891Z,82.15
2017-05-29T03:16:28.473Z,81.96
2017-05-29T03:17:29.058Z,80.90
2017-05-29T03:18:29.639Z,81.09
2017-05-29T03:19:30.221Z,80.71
2017-05-29T03:20:30.805Z,81.81
2017-05-29T03:21:31.387Z,80.99
2017-05-29T03:22:31.970Z,82.10
2017-05-29T03:23:32.554Z,83.64
2017-05-29T03:24:33.135Z,82.78
2017-05-29T03:25:33.736Z,82.87
2017-05-29T03:26:34.323Z,82.59
2017-05-29T03:27:34.903Z,82.87
2017-05-29T03:28:35.486Z,84.31
2017-05-29T03:29:36.069Z,84.55
2017-05-29T03:30:36.654Z,83.36
2017-05-29T03:31:37.236Z,83.93
2017-05-29T03:32:37.820Z,82.87
2017-05-29T03:33:38.405Z,83.20
2017-05-29T03:34:39.005Z,82.73
2017-05-29T03:35:39.589Z,81.81
2017-05-29T03:36:40.171Z,80.94
2017-05-29T03:37:40.772Z,81.23
2017-05-29T03:38:41.372Z,81.81
2017-05-29T03:39:41.959Z,82.48
2017-05-29T03:40:42.540Z,81.81
2017-05-29T03:41:43.122Z,82.38
2017-05-29T03:42:43.702Z,82.24
2017-05-29T03:43:44.287Z,82.76
2017-05-29T03:44:44.869Z,81.76
2017-05-29T03:45:45.451Z,82.76
2017-05-29T03:46:46.036Z,81.71
2017-05-29T03:47:46.618Z,81.71
2017-05-29T03:48:47.201Z,82.24
2017-05-29T03:49:47.785Z,82.86
2017-05-29T03:50:48.368Z,82.15
2017-05-29T03:51:48.950Z,82.15
2017-05-29T03:52:49.534Z,83.93
2017-05-29T03:53:50.134Z,85.24
2017-05-29T03:54:50.718Z,85.57
2017-05-29T03:55:51.301Z,83.74
2017-05-29T03:56:51.886Z,83.54
2017-05-29T03:57:52.485Z,85.66
2017-05-29T03:58:53.068Z,84.70
2017-05-29T03:59:53.652Z,85.42
2017-05-29T04:00:54.236Z,85.81
2017-05-29T04:01:54.819Z,85.66
2017-05-29T04:02:55.424Z,85.71
2017-05-29T04:03:56.004Z,83.59
2017-05-29T04:04:56.586Z,83.40
2017-05-29T04:05:57.172Z,84.51
2017-05-29T04:06:57.754Z,84.80
2017-05-29T04:07:58.337Z,84.84
2017-05-29T04:08:58.937Z,83.63
2017-05-29T04:09:59.522Z,81.99
2017-05-29T04:11:00.121Z,82.82
2017-05-29T04:12:00.721Z,84.74
2017-05-29T04:13:01.305Z,83.84
2017-05-29T04:14:01.890Z,83.59
2017-05-29T04:15:02.473Z,83.20
2017-05-29T04:16:03.073Z,83.30
2017-05-29T04:17:03.659Z,84.07
2017-05-29T04:18:04.244Z,84.70
2017-05-29T04:19:04.828Z,85.47
2017-05-29T04:20:05.413Z,85.61
2017-05-29T04:21:05.998Z,84.26
2017-05-29T04:22:06.581Z,84.26
2017-05-29T04:23:07.167Z,84.26
2017-05-29T04:24:07.752Z,84.41
2017-05-29T04:25:08.336Z,84.70
2017-05-29T04:26:08.920Z,85.41
2017-05-29T04:27:09.506Z,85.22
2017-05-29T04:28:10.107Z,85.18
2017-05-29T04:29:10.691Z,85.37
2017-05-29T04:30:11.275Z,84.70
2017-05-29T04:31:11.875Z,85.85
2017-05-29T04:32:12.461Z,85.85
2017-05-29T04:33:13.047Z,85.81
2017-05-29T04:34:13.647Z,87.01
2017-05-29T04:35:14.233Z,85.75
2017-05-29T04:36:14.816Z,85.47
2017-05-29T04:37:15.418Z,85.85
2017-05-29T04:38:16.005Z,85.51
2017-05-29T04:39:16.594Z,84.55
2017-05-29T04:40:17.178Z,84.84
2017-05-29T04:41:17.762Z,85.75
2017-05-29T04:42:18.346Z,85.32
2017-05-29T04:43:18.948Z,85.32
2017-05-29T04:44:19.535Z,85.80
2017-05-29T04:45:20.119Z,84.94
2017-05-29T04:46:20.703Z,84.55
2017-05-29T04:47:21.305Z,84.84
2017-05-29T04:48:21.890Z,85.07
2017-05-29T04:49:22.477Z,84.26
2017-05-29T04:50:23.061Z,84.36
2017-05-29T04:51:23.648Z,83.83
2017-05-29T04:52:24.232Z,82.86
2017-05-29T04:53:24.819Z,82.71
2017-05-29T04:54:25.404Z,83.44
2017-05-29T04:55:25.988Z,82.67
2017-05-29T04:56:26.575Z,83.44
2017-05-29T04:57:27.161Z,83.63
2017-05-29T04:58:27.745Z,84.11
2017-05-29T04:59:28.329Z,85.22
2017-05-29T05:00:28.932Z,84.40
2017-05-29T05:01:29.518Z,84.21
2017-05-29T05:02:30.102Z,83.29
2017-05-29T05:03:30.686Z,82.71
2017-05-29T05:04:31.270Z,83.39
2017-05-29T05:05:31.857Z,82.23
2017-05-29T05:06:32.443Z,82.81
2017-05-29T05:07:33.045Z,82.32
2017-05-29T05:08:33.629Z,81.79
2017-05-29T05:09:34.214Z,81.94
2017-05-29T05:10:34.799Z,81.12
2017-05-29T05:11:35.384Z,82.42
2017-05-29T05:12:35.968Z,82.32
2017-05-29T05:13:36.554Z,82.42
2017-05-29T05:14:37.139Z,82.14
2017-05-29T05:15:37.724Z,82.04
2017-05-29T05:16:38.308Z,81.50
2017-05-29T05:17:38.895Z,81.94
2017-05-29T05:18:39.480Z,82.32
2017-05-29T05:19:40.063Z,83.39
2017-05-29T05:20:40.649Z,83.63
2017-05-29T05:21:41.233Z,82.42
2017-05-29T05:22:41.819Z,82.23
2017-05-29T05:23:42.406Z,82.52
2017-05-29T05:24:42.992Z,82.27
2017-05-29T05:25:43.582Z,82.14
2017-05-29T05:26:44.163Z,81.98
2017-05-29T05:27:44.749Z,81.12
2017-05-29T05:28:45.333Z,80.63
2017-05-29T05:29:45.922Z,80.54
2017-05-29T05:30:46.505Z,82.23
2017-05-29T05:31:47.107Z,82.81
2017-05-29T05:32:47.695Z,81.75
2017-05-29T05:33:48.280Z,81.88
2017-05-29T05:34:48.866Z,80.00
2017-05-29T05:35:49.450Z,80.54
2017-05-29T05:36:50.036Z,81.30
2017-05-29T05:37:50.621Z,81.70
2017-05-29T05:38:51.208Z,82.27
2017-05-29T05:39:51.794Z,82.37
2017-05-29T05:40:52.378Z,82.27
2017-05-29T05:41:52.963Z,81.50
2017-05-29T05:42:53.548Z,80.58
2017-05-29T05:43:54.136Z,80.29
2017-05-29T05:44:54.720Z,80.38
2017-05-29T05:45:55.307Z,79.33
2017-05-29T05:46:55.892Z,79.61
2017-05-29T05:47:56.477Z,80.10
2017-05-29T05:48:57.062Z,79.52
2017-05-29T05:49:57.647Z,79.52
2017-05-29T05:50:58.235Z,80.19
2017-05-29T05:51:58.819Z,80.19
2017-05-29T05:52:59.448Z,80.38
2017-05-29T05:53:59.993Z,79.43
2017-05-29T05:55:00.595Z,79.08
2017-05-29T05:56:01.214Z,80.35
2017-05-29T05:57:01.750Z,80.58
2017-05-29T05:58:02.351Z,79.46
2017-05-29T05:59:02.941Z,79.81
2017-05-29T06:00:03.539Z,80.58
2017-05-29T06:01:04.125Z,79.75
2017-05-29T06:02:04.710Z,78.25
2017-05-29T06:03:05.310Z,77.86
2017-05-29T06:04:05.883Z,78.54
2017-05-29T06:05:06.468Z,78.15
2017-05-29T06:06:07.053Z,78.50
2017-05-29T06:07:07.656Z,78.34
2017-05-29T06:08:08.241Z,78.59
2017-05-29T06:09:08.829Z,78.25
2017-05-29T06:10:09.413Z,78.92
2017-05-29T06:11:09.999Z,78.15
2017-05-29T06:12:10.585Z,78.25
2017-05-29T06:13:11.173Z,77.96
2017-05-29T06:14:11.757Z,78.25
2017-05-29T06:15:12.344Z,79.31
2017-05-29T06:16:12.929Z,78.92
2017-05-29T06:17:13.517Z,78.63
2017-05-29T06:18:14.120Z,78.34
2017-05-29T06:19:14.704Z,77.90
2017-05-29T06:20:15.290Z,78.09
2017-05-29T06:21:15.875Z,77.61
2017-05-29T06:22:16.460Z,76.84
2017-05-29T06:23:17.045Z,76.68
2017-05-29T06:24:17.647Z,76.36
2017-05-29T06:25:18.231Z,76.90
2017-05-29T06:26:18.818Z,77.51
2017-05-29T06:27:19.402Z,77.96
2017-05-29T06:28:19.988Z,77.76
2017-05-29T06:29:20.575Z,76.98
2017-05-29T06:30:21.162Z,76.20
2017-05-29T06:31:21.749Z,76.68
2017-05-29T06:32:22.335Z,77.03
2017-05-29T06:33:22.921Z,77.36
2017-05-29T06:34:23.507Z,77.81
2017-05-29T06:35:24.090Z,76.88
2017-05-29T06:36:24.676Z,76.30
2017-05-29T06:37:25.263Z,77.17
2017-05-29T06:38:25.847Z,77.33
2017-05-29T06:39:26.431Z,78.29
2017-05-29T06:40:27.026Z,77.55
2017-05-29T06:41:27.602Z,77.01
2017-05-29T06:42:28.189Z,76.24
2017-05-29T06:43:28.775Z,76.24
2017-05-29T06:44:29.362Z,75.57
2017-05-29T06:45:29.946Z,76.15
2017-05-29T06:46:30.531Z,75.27
2017-05-29T06:47:31.120Z,76.92
2017-05-29T06:48:31.705Z,75.95
2017-05-29T06:49:32.293Z,75.57
2017-05-29T06:50:32.875Z,76.40
2017-05-29T06:51:33.463Z,76.68
2017-05-29T06:52:34.048Z,76.82
2017-05-29T06:53:34.633Z,77.01
2017-05-29T06:54:35.220Z,76.82
2017-05-29T06:55:35.803Z,76.47
2017-05-29T06:56:36.390Z,74.96
2017-05-29T06:57:36.976Z,74.38
2017-05-29T06:58:37.563Z,75.12
2017-05-29T06:59:38.149Z,76.18
2017-05-29T07:00:38.733Z,76.63
2017-05-29T07:01:39.323Z,77.11
2017-05-29T07:02:39.905Z,78.03
2017-05-29T07:03:40.491Z,77.50
2017-05-29T07:04:41.077Z,77.11
2017-05-29T07:05:41.665Z,76.09
2017-05-29T07:06:42.249Z,75.26
2017-05-29T07:07:42.835Z,75.41
2017-05-29T07:08:43.421Z,75.31
2017-05-29T07:09:44.006Z,75.99
2017-05-29T07:10:44.592Z,77.05
2017-05-29T07:11:45.179Z,77.25
2017-05-29T07:12:45.767Z,76.37
2017-05-29T07:13:46.353Z,76.43
2017-05-29T07:14:46.938Z,77.01
2017-05-29T07:15:47.525Z,77.25
2017-05-29T07:16:48.110Z,78.08
2017-05-29T07:17:48.697Z,79.14
2017-05-29T07:18:49.304Z,78.02
2017-05-29T07:19:49.870Z,77.63
2017-05-29T07:20:50.456Z,76.61
2017-05-29T07:21:51.042Z,76.84
2017-05-29T07:22:51.630Z,74.42
2017-05-29T07:23:52.214Z,74.07
2017-05-29T07:24:52.800Z,73.65
2017-05-29T07:25:53.385Z,74.71
2017-05-29T07:26:53.973Z,75.64
2017-05-29T07:27:54.558Z,75.64
2017-05-29T07:28:55.144Z,75.58
2017-05-29T07:29:55.729Z,75.64
2017-05-29T07:30:56.314Z,75.78
2017-05-29T07:31:56.901Z,75.35
2017-05-29T07:32:57.486Z,76.32
2017-05-29T07:33:58.073Z,75.48
2017-05-29T07:34:58.659Z,75.20
2017-05-29T07:35:59.245Z,75.10
2017-05-29T07:36:59.831Z,75.29
2017-05-29T07:38:00.417Z,74.46
2017-05-29T07:39:01.004Z,73.78
2017-05-29T07:40:01.589Z,74.62
2017-05-29T07:41:02.177Z,75.16
2017-05-29T07:42:02.761Z,75.52
2017-05-29T07:43:03.365Z,75.48
2017-05-29T07:44:03.971Z,75.04
2017-05-29T07:45:04.574Z,75.84
2017-05-29T07:46:05.157Z,75.45
2017-05-29T07:47:05.742Z,75.68
2017-05-29T07:48:06.329Z,75.13
2017-05-29T07:49:06.918Z,73.82
2017-05-29T07:50:07.501Z,72.75
2017-05-29T07:51:08.087Z,73.24
2017-05-29T07:52:08.678Z,73.72
2017-05-29T07:53:09.262Z,73.04
2017-05-29T07:54:09.846Z,72.60
2017-05-29T07:55:10.433Z,72.83
2017-05-29T07:56:11.017Z,71.08
2017-05-29T07:57:11.603Z,71.98
2017-05-29T07:58:12.190Z,73.68
2017-05-29T07:59:12.778Z,74.59
2017-05-29T08:00:13.364Z,72.69
2017-05-29T08:01:13.949Z,71.60
2017-05-29T08:02:14.538Z,70.50
2017-05-29T08:03:15.124Z,71.28
2017-05-29T08:04:15.711Z,71.44
2017-05-29T08:05:16.299Z,73.43
2017-05-29T08:06:16.889Z,73.14
2017-05-29T08:07:17.475Z,72.79
2017-05-29T08:08:18.066Z,72.44
2017-05-29T08:09:18.667Z,72.44
2017-05-29T08:10:19.271Z,71.99
2017-05-29T08:11:19.858Z,69.31
2017-05-29T08:12:20.445Z,69.53
2017-05-29T08:13:21.034Z,70.79
2017-05-29T08:14:21.622Z,70.73
2017-05-29T08:15:22.226Z,70.09
2017-05-29T08:16:22.816Z,69.89
2017-05-29T08:17:23.401Z,68.60
2017-05-29T08:18:24.005Z,69.92
2017-05-29T08:19:24.592Z,70.25
2017-05-29T08:20:25.180Z,70.40
2017-05-29T08:21:25.767Z,70.21
2017-05-29T08:22:26.355Z,70.73
2017-05-29T08:23:26.947Z,69.27
2017-05-29T08:24:27.530Z,68.79
2017-05-29T08:25:28.118Z,68.34
2017-05-29T08:26:28.708Z,68.54
2017-05-29T08:27:29.295Z,69.12
2017-05-29T08:28:29.881Z,68.86
2017-05-29T08:29:30.471Z,68.28
2017-05-29T08:30:31.078Z,67.05
2017-05-29T08:31:31.695Z,66.66
2017-05-29T08:32:32.272Z,67.05
2017-05-29T08:33:32.857Z,68.08
2017-05-29T08:34:33.447Z,67.21
2017-05-29T08:35:34.035Z,67.89
2017-05-29T08:36:34.624Z,67.69
2017-05-29T08:37:35.211Z,69.21
2017-05-29T08:38:35.799Z,68.82
2017-05-29T08:39:36.391Z,69.57
2017-05-29T08:40:36.974Z,69.89
2017-05-29T08:41:37.563Z,69.15
2017-05-29T08:42:38.150Z,68.47
2017-05-29T08:43:38.740Z,68.44
2017-05-29T08:44:39.327Z,69.67
2017-05-29T08:45:39.916Z,68.82
2017-05-29T08:46:40.554Z,67.40
2017-05-29T08:47:41.108Z,66.14
2017-05-29T08:48:41.694Z,66.95
2017-05-29T08:49:42.301Z,66.63
2017-05-29T08:50:42.908Z,67.85
2017-05-29T08:51:43.499Z,69.21
2017-05-29T08:52:44.102Z,67.83
2017-05-29T08:53:44.690Z,67.05
2017-05-29T08:54:45.278Z,66.56
2017-05-29T08:55:45.866Z,67.60
2017-05-29T08:56:46.454Z,67.57
2017-05-29T08:57:47.043Z,68.76
2017-05-29T08:58:47.631Z,67.44
2017-05-29T08:59:48.223Z,65.62
2017-05-29T09:00:48.811Z,65.62
2017-05-29T09:01:49.398Z,65.95
2017-05-29T09:02:50.002Z,65.24
2017-05-29T09:03:50.590Z,65.11
2017-05-29T09:04:51.180Z,64.78
2017-05-29T09:05:51.768Z,65.37
2017-05-29T09:06:52.356Z,65.53
2017-05-29T09:07:52.944Z,65.98
2017-05-29T09:08:53.535Z,67.34
2017-05-29T09:09:54.140Z,66.69
2017-05-29T09:10:54.726Z,65.92
2017-05-29T09:11:55.333Z,65.79
2017-05-29T09:12:55.921Z,64.85
2017-05-29T09:13:56.527Z,63.84
2017-05-29T09:14:57.115Z,64.43
2017-05-29T09:15:57.702Z,64.40
2017-05-29T09:16:58.293Z,63.78
2017-05-29T09:17:58.898Z,64.36
2017-05-29T09:18:59.488Z,63.97
2017-05-29T09:20:00.075Z,65.33
2017-05-29T09:21:00.664Z,64.78
2017-05-29T09:22:01.271Z,63.81
2017-05-29T09:23:01.859Z,65.37
2017-05-29T09:24:02.448Z,64.88
2017-05-29T09:25:03.037Z,65.69
2017-05-29T09:26:03.625Z,63.94
2017-05-29T09:27:04.212Z,64.91
2017-05-29T09:28:04.802Z,64.46
2017-05-29T09:29:05.402Z,63.78
2017-05-29T09:30:05.978Z,65.14
2017-05-29T09:31:06.566Z,65.05
2017-05-29T09:32:07.153Z,65.85
2017-05-29T09:33:07.741Z,65.08
2017-05-29T09:34:08.330Z,65.85
2017-05-29T09:35:08.918Z,64.56
2017-05-29T09:36:09.505Z,65.33
2017-05-29T09:37:10.092Z,64.07
2017-05-29T09:38:10.683Z,62.71
2017-05-29T09:39:11.266Z,63.97
2017-05-29T09:40:11.872Z,63.29
2017-05-29T09:41:12.460Z,63.36
2017-05-29T09:42:13.051Z,63.78
2017-05-29T09:43:13.638Z,63.59
2017-05-29T09:44:14.226Z,63.32
2017-05-29T09:45:14.831Z,63.20
2017-05-29T09:46:15.420Z,63.32
2017-05-29T09:47:16.008Z,63.13
2017-05-29T09:48:16.598Z,63.52
2017-05-29T09:49:17.186Z,63.03
2017-05-29T09:50:17.776Z,62.96
2017-05-29T09:51:18.381Z,62.38
2017-05-29T09:52:18.967Z,61.51
2017-05-29T09:53:19.557Z,62.19
2017-05-29T09:54:20.144Z,63.23
2017-05-29T09:55:20.749Z,62.96
2017-05-29T09:56:21.340Z,62.19
2017-05-29T09:57:21.944Z,61.51
2017-05-29T09:58:22.533Z,62.22
2017-05-29T09:59:23.124Z,60.82
2017-05-29T10:00:23.717Z,61.08
2017-05-29T10:01:24.302Z,61.47
2017-05-29T10:02:24.891Z,61.38
2017-05-29T10:03:25.482Z,62.77
2017-05-29T10:04:26.071Z,63.45
2017-05-29T10:05:26.661Z,61.24
2017-05-29T10:06:27.266Z,61.73
2017-05-29T10:07:27.854Z,61.44
2017-05-29T10:08:28.444Z,60.85
2017-05-29T10:09:29.034Z,60.75
2017-05-29T10:10:29.624Z,61.27
2017-05-29T10:11:30.213Z,61.57
2017-05-29T10:12:30.804Z,59.91
2017-05-29T10:13:31.393Z,61.44
2017-05-29T10:14:31.983Z,60.95
2017-05-29T10:15:32.573Z,60.49
2017-05-29T10:16:33.179Z,60.39
2017-05-29T10:17:33.768Z,59.78
2017-05-29T10:18:34.357Z,60.75
2017-05-29T10:19:34.947Z,60.10
2017-05-29T10:20:35.537Z,61.08
2017-05-29T10:21:36.142Z,61.01
2017-05-29T10:22:36.733Z,60.85
2017-05-29T10:23:37.322Z,60.69
2017-05-29T10:24:37.913Z,60.88
2017-05-29T10:25:38.501Z,61.27
2017-05-29T10:26:39.092Z,60.98
2017-05-29T10:27:39.679Z,60.13
2017-05-29T10:28:40.270Z,59.26
2017-05-29T10:29:40.861Z,59.64
2017-05-29T10:30:41.453Z,60.23
2017-05-29T10:31:42.061Z,59.94
2017-05-29T10:32:42.649Z,59.94
2017-05-29T10:33:43.239Z,59.38
2017-05-29T10:34:43.828Z,59.58
2017-05-29T10:35:44.420Z,59.51
2017-05-29T10:36:45.008Z,58.40
2017-05-29T10:37:45.598Z,59.02
2017-05-29T10:38:46.187Z,57.60
2017-05-29T10:39:46.777Z,58.09
2017-05-29T10:40:47.366Z,58.02
2017-05-29T10:41:47.956Z,59.58
2017-05-29T10:42:48.546Z,58.31
2017-05-29T10:43:49.135Z,57.56
2017-05-29T10:44:49.725Z,57.17
2017-05-29T10:45:50.316Z,56.97
2017-05-29T10:46:50.908Z,57.46
2017-05-29T10:47:51.498Z,57.65
2017-05-29T10:48:52.103Z,57.34
2017-05-29T10:49:52.680Z,58.44
2017-05-29T10:50:53.286Z,57.92
2017-05-29T10:51:53.878Z,58.24
2017-05-29T10:52:54.468Z,57.10
2017-05-29T10:53:55.059Z,57.29
2017-05-29T10:54:55.655Z,55.93
2017-05-29T10:55:56.247Z,55.77
2017-05-29T10:56:56.836Z,56.58
2017-05-29T10:57:57.427Z,55.93
2017-05-29T10:58:58.017Z,57.20
2017-05-29T10:59:58.609Z,56.71
2017-05-29T11:00:59.198Z,56.02
2017-05-29T11:01:59.789Z,55.86
2017-05-29T11:03:00.379Z,55.66
2017-05-29T11:04:00.971Z,55.44
2017-05-29T11:05:01.580Z,55.76
2017-05-29T11:06:02.173Z,54.95
2017-05-29T11:07:02.763Z,55.24
2017-05-29T11:08:03.353Z,55.80
2017-05-29T11:09:03.945Z,56.32
2017-05-29T11:10:04.540Z,55.93
2017-05-29T11:11:05.144Z,56.20
2017-05-29T11:12:05.738Z,57.43
2017-05-29T11:13:06.325Z,56.41
2017-05-29T11:14:06.916Z,55.73
2017-05-29T11:15:07.524Z,55.27
2017-05-29T11:16:08.115Z,55.30
2017-05-29T11:17:08.721Z,55.37
2017-05-29T11:18:09.312Z,55.49
2017-05-29T11:19:09.901Z,55.10
2017-05-29T11:20:10.491Z,55.30
2017-05-29T11:21:11.084Z,54.91
2017-05-29T11:22:11.673Z,55.30
2017-05-29T11:23:12.265Z,55.30
2017-05-29T11:24:12.856Z,54.83
2017-05-29T11:25:13.448Z,55.03
2017-05-29T11:26:14.037Z,54.74
2017-05-29T11:27:14.629Z,54.61
2017-05-29T11:28:15.220Z,55.76
2017-05-29T11:29:15.813Z,54.71
2017-05-29T11:30:16.403Z,54.91
2017-05-29T11:31:16.993Z,54.61
2017-05-29T11:32:17.587Z,54.52
2017-05-29T11:33:18.193Z,53.76
2017-05-29T11:34:18.786Z,52.91
2017-05-29T11:35:19.376Z,53.30
2017-05-29T11:36:19.967Z,52.81
2017-05-29T11:37:20.573Z,52.78
2017-05-29T11:38:21.164Z,54.61
2017-05-29T11:39:21.755Z,54.35
2017-05-29T11:40:22.345Z,53.10
2017-05-29T11:41:22.936Z,53.54
2017-05-29T11:42:23.528Z,53.42
2017-05-29T11:43:24.119Z,52.66
2017-05-29T11:44:24.709Z,52.98
2017-05-29T11:45:25.299Z,53.56
2017-05-29T11:46:25.892Z,52.71
2017-05-29T11:47:26.483Z,52.29
2017-05-29T11:48:27.080Z,52.22
2017-05-29T11:49:27.667Z,53.05
2017-05-29T11:50:28.273Z,53.83
2017-05-29T11:51:28.866Z,53.37
2017-05-29T11:52:29.457Z,52.76
2017-05-29T11:53:30.051Z,54.91
2017-05-29T11:54:30.638Z,54.28
2017-05-29T11:55:31.244Z,53.30
2017-05-29T11:56:31.837Z,52.05
2017-05-29T11:57:32.427Z,51.51
2017-05-29T11:58:33.018Z,55.00
2017-05-29T11:59:33.610Z,54.54
2017-05-29T12:00:34.202Z,53.69
2017-05-29T12:01:34.792Z,52.83
2017-05-29T12:02:35.385Z,52.54
2017-05-29T12:03:35.976Z,51.66
2017-05-29T12:04:36.585Z,51.59
2017-05-29T12:05:37.178Z,51.10
2017-05-29T12:06:37.769Z,51.00
2017-05-29T12:07:38.377Z,51.76
2017-05-29T12:08:38.967Z,51.76
2017-05-29T12:09:39.557Z,52.03
2017-05-29T12:10:40.150Z,51.81
2017-05-29T12:11:40.741Z,52.59
2017-05-29T12:12:41.332Z,52.73
2017-05-29T12:13:41.924Z,51.76
2017-05-29T12:14:42.516Z,51.20
2017-05-29T12:15:43.107Z,51.49
2017-05-29T12:16:43.698Z,51.29
2017-05-29T12:17:44.290Z,50.63
2017-05-29T12:18:44.884Z,50.51
2017-05-29T12:19:45.472Z,50.88
2017-05-29T12:20:46.106Z,52.27
2017-05-29T12:21:46.672Z,51.03
2017-05-29T12:22:47.281Z,50.44
2017-05-29T12:23:47.871Z,51.68
2017-05-29T12:24:48.464Z,51.61
2017-05-29T12:25:49.055Z,51.90
2017-05-29T12:26:49.647Z,51.22
2017-05-29T12:27:50.238Z,51.32
2017-05-29T12:28:50.832Z,50.73
2017-05-29T12:29:51.424Z,50.27
2017-05-29T12:30:52.016Z,50.39
2017-05-29T12:31:52.610Z,50.71
2017-05-29T12:32:53.202Z,50.59
2017-05-29T12:33:53.793Z,50.42
2017-05-29T12:34:54.386Z,50.63
2017-05-29T12:35:54.978Z,49.55
2017-05-29T12:36:55.570Z,49.73
2017-05-29T12:37:56.163Z,50.34
2017-05-29T12:38:56.754Z,50.44
2017-05-29T12:39:57.347Z,50.27
2017-05-29T12:40:57.940Z,49.85
2017-05-29T12:41:58.532Z,50.24
2017-05-29T12:42:59.124Z,49.75
2017-05-29T12:43:59.718Z,49.38
2017-05-29T12:45:00.310Z,49.36
2017-05-29T12:46:00.904Z,49.75
2017-05-29T12:47:01.512Z,50.37
2017-05-29T12:48:02.104Z,51.56
2017-05-29T12:49:02.697Z,51.86
2017-05-29T12:50:03.289Z,52.54
2017-05-29T12:51:03.931Z,51.46
2017-05-29T12:52:04.473Z,51.51
2017-05-29T12:53:05.065Z,50.27
2017-05-29T12:54:05.657Z,48.48
2017-05-29T12:55:06.255Z,50.68
2017-05-29T12:56:06.859Z,51.00
2017-05-29T12:57:07.450Z,50.27
2017-05-29T12:58:08.044Z,49.99
2017-05-29T12:59:08.637Z,51.95
2017-05-29T13:00:09.230Z,51.37